»·PEaware :: N127CB KIFP-KSNA

N127CB :: KIFP-KSNA

FLIGHT INFORMATION

Flight Status: Arrived
Operator: Privately registered:
United States
More flights under this callsign
Pilot: Chris Beckett (15698)
Aircraft: Unknown
(HA4T)
More flights by this aircraft type
Origin: KIFP Laughlin/Bullhead Intl
United States
Destination: KSNA John Wayne-Orange Co
United States
More flights between these airports :: More routes between these airports
Route: +EED HEC KEFFR4
File this flight plan on PilotEdge
Remarks: Prefer ILS 20R Instrument Approach
Altitude:
(Current/Filed)
18,000ft
Speed:
(Current/Filed)
340kts
Departed: 09-Aug-17 09:40 AM
Arrived: 09-Aug-17 10:29 AM
Distance/Time
Traveled:
187nm/0:49
Distance/Time
To Go:
Arrived

Flight Plot

Page will automatically refresh every two minutes.

Flight plan parsing failed; only flown route is shown


Map Options




Map Legend


Flown Route
Filed Route
Departure Airport
Arrival Airport
Navaid (VOR, NDB)
Fix

Horizontal Profiles

Position Reports

Time Latitude Longitude Heading Altitude Ground
Speed
09-Aug-17 09:12 35.159750 -114.556375 266 707ft 0kts
09-Aug-17 09:13 35.159750 -114.556375 266 707ft 0kts
09-Aug-17 09:14 35.159750 -114.556375 266 707ft 0kts
09-Aug-17 09:15 35.159750 -114.556375 266 707ft 0kts
09-Aug-17 09:16 35.159750 -114.556375 266 707ft 0kts
09-Aug-17 09:17 35.159750 -114.556375 266 707ft 0kts
09-Aug-17 09:18 35.159750 -114.556375 266 707ft 0kts
09-Aug-17 09:19 35.159750 -114.556375 266 707ft 0kts
09-Aug-17 09:20 35.159750 -114.556375 266 707ft 0kts
09-Aug-17 09:21 35.159750 -114.556375 266 707ft 0kts
09-Aug-17 09:22 35.159750 -114.556375 266 707ft 0kts
09-Aug-17 09:23 35.159750 -114.556375 266 707ft 0kts
09-Aug-17 09:24 35.159750 -114.556375 266 707ft 0kts
09-Aug-17 09:25 35.159750 -114.556375 266 707ft 0kts
09-Aug-17 09:26 35.159750 -114.556375 266 707ft 0kts
09-Aug-17 09:27 35.159750 -114.556375 266 707ft 0kts
09-Aug-17 09:28 35.159750 -114.556375 266 707ft 0kts
09-Aug-17 09:29 35.159750 -114.556375 266 707ft 0kts
09-Aug-17 09:30 35.159750 -114.556375 266 707ft 0kts
09-Aug-17 09:31 35.159750 -114.556375 266 707ft 0kts
09-Aug-17 09:32 35.159716 -114.556578 251 707ft 9kts
09-Aug-17 09:33 35.159713 -114.558396 338 707ft 12kts
09-Aug-17 09:34 35.164705 -114.558736 356 707ft 19kts
09-Aug-17 09:35 35.166178 -114.559131 277 707ft 0kts
09-Aug-17 09:36 35.166178 -114.559131 277 707ft 0kts
09-Aug-17 09:37 35.166178 -114.559131 277 707ft 0kts
09-Aug-17 09:38 35.166178 -114.559131 277 707ft 0kts
09-Aug-17 09:39 35.166178 -114.559131 277 707ft 0kts
09-Aug-17 09:40 35.166178 -114.559131 277 707ft 0kts
09-Aug-17 09:41 35.166178 -114.559131 277 707ft 0kts
09-Aug-17 09:42 35.166178 -114.559131 277 707ft 0kts
09-Aug-17 09:43 35.162751 -114.559968 174 707ft 98kts
09-Aug-17 09:44 35.115520 -114.555325 174 3680ft 191kts
09-Aug-17 09:45 35.062475 -114.549025 174 6484ft 196kts
09-Aug-17 09:46 35.009590 -114.542534 174 6860ft 197kts
09-Aug-17 09:47 34.954920 -114.534825 174 6862ft 199kts
09-Aug-17 09:48 34.900071 -114.527242 174 6876ft 196kts
09-Aug-17 09:49 34.852506 -114.524123 174 6881ft 195kts
09-Aug-17 09:50 34.801574 -114.509652 139 6888ft 194kts
09-Aug-17 09:51 34.755265 -114.486678 217 7751ft 247kts
09-Aug-17 09:52 34.722189 -114.542709 230 16833ft 220kts
09-Aug-17 09:53 34.678585 -114.611267 230 16883ft 276kts
09-Aug-17 09:54 34.631481 -114.684983 230 16881ft 276kts
09-Aug-17 09:55 34.575353 -114.772495 230 16866ft 402kts
09-Aug-17 09:56 34.507558 -114.878122 230 16882ft 396kts
09-Aug-17 09:57 34.440212 -114.982662 230 16880ft 397kts
09-Aug-17 09:58 34.371862 -115.088464 230 16880ft 400kts
09-Aug-17 09:59 34.303039 -115.194635 230 16879ft 403kts
09-Aug-17 10:00 34.233995 -115.300802 230 16928ft 402kts
09-Aug-17 10:01 34.164899 -115.406709 230 17340ft 403kts
09-Aug-17 10:02 34.094975 -115.513522 230 18016ft 406kts
09-Aug-17 10:03 34.036207 -115.628610 246 17950ft 410kts
09-Aug-17 10:04 34.001464 -115.750618 255 17865ft 408kts
09-Aug-17 10:05 33.974113 -115.885580 253 20271ft 422kts
09-Aug-17 10:06 33.936391 -116.007859 229 20032ft 416kts
09-Aug-17 10:07 33.881919 -116.117572 239 17804ft 408kts
09-Aug-17 10:08 33.851900 -116.226423 270 17033ft 417kts
09-Aug-17 10:09 33.863793 -116.364077 273 16342ft 414kts
09-Aug-17 10:10 33.873423 -116.500104 270 15967ft 411kts
09-Aug-17 10:11 33.879813 -116.634960 270 15336ft 408kts
09-Aug-17 10:12 33.884877 -116.744274 270 15008ft 405kts
09-Aug-17 10:13 33.887531 -116.866173 259 14553ft 342kts
09-Aug-17 10:14 33.874343 -116.977705 259 13278ft 338kts
09-Aug-17 10:15 33.861377 -117.086033 260 12017ft 333kts
09-Aug-17 10:16 33.848585 -117.192638 261 10753ft 327kts
09-Aug-17 10:17 33.835818 -117.297930 261 9477ft 320kts
09-Aug-17 10:18 33.823487 -117.398826 261 8180ft 279kts
09-Aug-17 10:19 33.807702 -117.478677 250 7399ft 251kts
09-Aug-17 10:20 33.783979 -117.553772 248 7825ft 243kts
09-Aug-17 10:21 33.796206 -117.616366 342 7912ft 223kts
09-Aug-17 10:22 33.854547 -117.637687 342 6343ft 222kts
09-Aug-17 10:23 33.897468 -117.653299 341 5025ft 214kts
09-Aug-17 10:24 33.922855 -117.697955 238 4198ft 212kts
09-Aug-17 10:25 33.884267 -117.736148 209 3984ft 191kts
09-Aug-17 10:26 33.846103 -117.760575 208 3687ft 192kts
09-Aug-17 10:27 33.812385 -117.782042 208 2968ft 172kts
09-Aug-17 10:28 33.787216 -117.798066 208 2406ft 157kts
09-Aug-17 10:29 33.757948 -117.816657 207 1778ft 155kts
09-Aug-17 10:30 33.726873 -117.836383 207 1092ft 153kts
09-Aug-17 10:31 33.697926 -117.854742 207 456ft 137kts
09-Aug-17 10:32 33.673200 -117.870465 215 62ft 29kts
09-Aug-17 10:33 33.672091 -117.872247 257 62ft 14kts
09-Aug-17 10:34 33.671639 -117.873678 211 62ft 0kts

Navigation Log

Ident Type
Flight plan parsing failed, navigation log unavailable